createdAt,value
2019-01-03T00:00:48.001Z,6.87
2019-01-03T00:03:34.363Z,6.37
2019-01-03T00:06:23.940Z,3.13
2019-01-03T00:09:17.190Z,5.80
2019-01-03T00:12:04.088Z,4.67
2019-01-03T00:14:54.477Z,6.03
2019-01-03T00:17:56.272Z,6.50
2019-01-03T00:20:46.471Z,5.13
2019-01-03T00:23:36.715Z,2.50
2019-01-03T00:26:33.072Z,6.33
2019-01-03T00:29:18.982Z,3.17
2019-01-03T00:32:11.946Z,2.37
2019-01-03T00:34:52.850Z,3.20
2019-01-03T00:37:48.476Z,6.70
2019-01-03T00:40:41.566Z,5.23
2019-01-03T00:43:27.914Z,3.43
2019-01-03T00:46:14.913Z,6.00
2019-01-03T00:49:00.497Z,2.50
2019-01-03T00:51:47.964Z,6.37
2019-01-03T00:54:35.532Z,4.10
2019-01-03T00:57:37.922Z,2.73
2019-01-03T01:00:35.094Z,3.63
2019-01-03T01:03:22.232Z,4.10
2019-01-03T01:06:07.855Z,6.17
2019-01-03T01:08:55.797Z,4.53
2019-01-03T01:11:40.459Z,5.60
2019-01-03T01:14:26.773Z,9.60
2019-01-03T01:17:14.776Z,3.83
2019-01-03T01:20:16.843Z,6.03
2019-01-03T01:23:03.284Z,5.13
2019-01-03T01:25:49.262Z,4.57
2019-01-03T01:28:47.684Z,4.97
2019-01-03T01:31:53.748Z,4.53
2019-01-03T01:34:39.057Z,5.43
2019-01-03T01:37:26.253Z,4.93
2019-01-03T01:40:13.325Z,5.17
2019-01-03T01:42:54.493Z,4.37
2019-01-03T01:45:40.438Z,3.03
2019-01-03T01:48:33.628Z,4.70
2019-01-03T01:51:21.266Z,4.80
2019-01-03T01:54:04.795Z,6.00
2019-01-03T01:56:50.411Z,5.70
2019-01-03T01:59:32.683Z,5.63
2019-01-03T02:02:28.869Z,1.80
2019-01-03T02:05:30.704Z,3.50
2019-01-03T02:08:31.461Z,5.00
2019-01-03T02:11:21.615Z,2.00
2019-01-03T02:14:08.030Z,4.53
2019-01-03T02:16:48.201Z,4.43
2019-01-03T02:19:31.302Z,4.73
2019-01-03T02:22:12.224Z,4.37
2019-01-03T02:25:11.773Z,6.37
2019-01-03T02:27:52.531Z,3.97
2019-01-03T02:30:42.828Z,2.93
2019-01-03T02:33:36.113Z,3.13
2019-01-03T02:36:22.592Z,5.67
2019-01-03T02:39:10.796Z,6.30
2019-01-03T02:42:03.893Z,4.27
2019-01-03T02:44:49.788Z,8.27
2019-01-03T02:47:40.122Z,6.10
2019-01-03T02:50:20.818Z,5.63
2019-01-03T02:53:16.927Z,8.60
2019-01-03T02:56:02.561Z,9.17
2019-01-03T02:58:49.185Z,4.23
2019-01-03T03:01:44.281Z,6.27
2019-01-03T03:04:43.431Z,7.17
2019-01-03T03:07:34.453Z,7.33
2019-01-03T03:10:33.840Z,6.30
2019-01-03T03:13:23.821Z,8.37
2019-01-03T03:16:13.921Z,6.03
2019-01-03T03:19:06.959Z,5.63
2019-01-03T03:22:03.494Z,7.87
2019-01-03T03:24:55.310Z,6.97
2019-01-03T03:27:42.466Z,3.97
2019-01-03T03:30:32.464Z,5.67
2019-01-03T03:33:18.203Z,5.33
2019-01-03T03:35:59.556Z,6.03
2019-01-03T03:38:52.614Z,9.30
2019-01-03T03:41:42.373Z,5.60
2019-01-03T03:44:31.038Z,9.77
2019-01-03T03:47:07.181Z,8.37
2019-01-03T03:49:52.849Z,5.23
2019-01-03T03:52:39.781Z,6.97
2019-01-03T03:55:35.872Z,9.23
2019-01-03T03:58:22.677Z,7.00
2019-01-03T04:01:12.506Z,5.80
2019-01-03T04:03:58.080Z,8.40
2019-01-03T04:06:43.929Z,5.40
2019-01-03T04:09:37.566Z,14.73
2019-01-03T04:12:33.189Z,7.57
2019-01-03T04:15:18.921Z,7.33
2019-01-03T04:18:05.601Z,8.40
2019-01-03T04:20:51.486Z,11.77
2019-01-03T04:23:38.644Z,6.43
2019-01-03T04:26:26.198Z,9.10
2019-01-03T04:29:12.269Z,8.20
2019-01-03T04:31:58.369Z,8.17
2019-01-03T04:34:49.753Z,6.60
2019-01-03T04:37:37.729Z,5.00
2019-01-03T04:40:28.174Z,8.53
2019-01-03T04:43:13.827Z,8.50
2019-01-03T04:46:07.049Z,6.73
2019-01-03T04:49:00.147Z,5.93
2019-01-03T04:51:47.454Z,6.03
2019-01-03T04:54:36.879Z,9.03
2019-01-03T04:57:22.818Z,8.70
2019-01-03T05:00:08.889Z,7.13
2019-01-03T05:03:05.010Z,9.13
2019-01-03T05:06:11.047Z,6.97
2019-01-03T05:09:12.824Z,7.03
2019-01-03T05:12:00.141Z,7.27
2019-01-03T05:14:53.587Z,8.37
2019-01-03T05:17:39.276Z,4.57
2019-01-03T05:20:42.218Z,9.47
2019-01-03T05:23:28.937Z,8.53
2019-01-03T05:26:14.914Z,7.43
2019-01-03T05:29:01.558Z,8.27
2019-01-03T05:31:39.252Z,7.03
2019-01-03T05:34:42.073Z,6.27
2019-01-03T05:37:38.597Z,7.33
2019-01-03T05:40:37.929Z,5.70
2019-01-03T05:43:23.678Z,6.60
2019-01-03T05:46:01.698Z,4.97
2019-01-03T05:48:47.196Z,5.80
2019-01-03T05:51:33.437Z,4.73
2019-01-03T05:54:36.063Z,6.63
2019-01-03T05:57:22.197Z,4.80
2019-01-03T06:00:08.921Z,8.90
2019-01-03T06:03:13.896Z,5.27
2019-01-03T06:06:04.442Z,8.33
2019-01-03T06:08:50.490Z,7.43
2019-01-03T06:11:41.902Z,5.63
2019-01-03T06:14:44.045Z,5.10
2019-01-03T06:17:34.174Z,7.77
2019-01-03T06:20:20.630Z,8.17
2019-01-03T06:23:05.702Z,9.03
2019-01-03T06:25:51.815Z,4.30
2019-01-03T06:28:39.154Z,7.20
2019-01-03T06:31:37.201Z,7.23
2019-01-03T06:34:34.093Z,6.30
2019-01-03T06:37:31.436Z,4.73
2019-01-03T06:40:17.382Z,5.67
2019-01-03T06:43:03.425Z,4.17
2019-01-03T06:45:57.989Z,6.63
2019-01-03T06:48:37.229Z,5.17
2019-01-03T06:51:36.240Z,6.00
2019-01-03T06:54:20.886Z,9.23
2019-01-03T06:57:08.392Z,8.17
2019-01-03T06:59:53.886Z,6.00
2019-01-03T07:02:52.784Z,7.97
2019-01-03T07:05:39.536Z,9.23
2019-01-03T07:08:25.934Z,11.40
2019-01-03T07:11:11.741Z,9.97
2019-01-03T07:14:04.041Z,7.97
2019-01-03T07:16:51.333Z,10.47
2019-01-03T07:19:38.971Z,9.97
2019-01-03T07:22:24.925Z,7.93
2019-01-03T07:25:18.149Z,7.47
2019-01-03T07:28:04.152Z,10.73
2019-01-03T07:30:58.622Z,7.17
2019-01-03T07:33:45.814Z,7.30
2019-01-03T07:36:39.940Z,9.47
2019-01-03T07:39:26.819Z,14.33
2019-01-03T07:42:22.947Z,7.67
2019-01-03T07:45:13.205Z,8.83
2019-01-03T07:48:09.388Z,5.87
2019-01-03T07:50:56.612Z,7.73
2019-01-03T07:53:40.876Z,9.03
2019-01-03T07:56:29.309Z,7.23
2019-01-03T07:59:25.688Z,10.23
2019-01-03T08:02:16.201Z,8.20
2019-01-03T08:05:01.978Z,10.07
2019-01-03T08:07:52.252Z,9.50
2019-01-03T08:10:38.253Z,11.17
2019-01-03T08:13:18.542Z,12.57
2019-01-03T08:16:06.163Z,7.37
2019-01-03T08:18:56.024Z,12.37
2019-01-03T08:21:33.325Z,6.90
2019-01-03T08:24:19.720Z,8.07
2019-01-03T08:27:10.806Z,7.50
2019-01-03T08:30:06.819Z,8.90
2019-01-03T08:32:53.845Z,10.00
2019-01-03T08:35:41.203Z,12.00
2019-01-03T08:38:22.015Z,7.33
2019-01-03T08:41:07.534Z,9.43
2019-01-03T08:43:54.393Z,6.63
2019-01-03T08:46:40.244Z,11.97
2019-01-03T08:49:30.234Z,10.67
2019-01-03T08:52:22.082Z,12.93
2019-01-03T08:55:12.357Z,10.83
2019-01-03T08:57:52.921Z,12.87
2019-01-03T09:00:46.304Z,9.90
2019-01-03T09:03:33.328Z,11.93
2019-01-03T09:06:19.204Z,7.07
2019-01-03T09:09:04.014Z,8.57
2019-01-03T09:11:54.583Z,8.83
2019-01-03T09:14:53.365Z,11.40
2019-01-03T09:17:39.683Z,10.00
2019-01-03T09:20:26.816Z,8.77
2019-01-03T09:23:13.997Z,14.90
2019-01-03T09:25:59.813Z,11.53
2019-01-03T09:28:45.621Z,9.17
2019-01-03T09:31:44.256Z,10.47
2019-01-03T09:34:43.747Z,9.97
2019-01-03T09:37:30.504Z,12.33
2019-01-03T09:40:16.408Z,11.40
2019-01-03T09:43:05.988Z,11.97
2019-01-03T09:45:43.834Z,11.53
2019-01-03T09:48:03.019Z,15.30
2019-01-03T09:50:30.618Z,14.33
2019-01-03T09:52:58.221Z,17.53
2019-01-03T09:55:25.830Z,10.20
2019-01-03T09:57:53.448Z,14.57
2019-01-03T10:00:21.057Z,13.43
2019-01-03T10:02:50.215Z,15.37
2019-01-03T10:05:18.198Z,9.50
2019-01-03T10:07:46.055Z,13.33
2019-01-03T10:10:13.913Z,14.60
2019-01-03T10:12:41.303Z,10.97
2019-01-03T10:15:08.778Z,7.93
2019-01-03T10:17:36.300Z,11.63
2019-01-03T10:20:04.777Z,13.90
2019-01-03T10:22:33.053Z,10.30
2019-01-03T10:25:00.783Z,11.83
2019-01-03T10:27:28.335Z,11.40
2019-01-03T10:29:56.437Z,10.33
2019-01-03T10:32:24.928Z,12.47
2019-01-03T10:34:52.385Z,9.77
2019-01-03T10:37:20.295Z,11.77
2019-01-03T10:39:47.566Z,12.73
2019-01-03T10:42:17.436Z,12.83
2019-01-03T10:44:45.650Z,13.30
2019-01-03T10:47:13.279Z,11.67
2019-01-03T10:49:40.542Z,11.73
2019-01-03T10:52:08.036Z,14.07
2019-01-03T10:54:35.698Z,16.70
2019-01-03T10:57:03.169Z,14.87
2019-01-03T10:59:30.968Z,14.50
2019-01-03T11:01:58.822Z,15.17
2019-01-03T11:04:26.073Z,13.47
2019-01-03T11:06:53.585Z,12.43
2019-01-03T11:09:20.698Z,18.73
2019-01-03T11:11:48.372Z,12.87
2019-01-03T11:14:16.155Z,15.60
2019-01-03T11:16:43.731Z,12.83
2019-01-03T11:19:11.412Z,15.43
2019-01-03T11:21:38.985Z,15.43
2019-01-03T11:24:06.125Z,16.83
2019-01-03T11:26:33.907Z,15.43
2019-01-03T11:29:01.118Z,18.47
2019-01-03T11:31:28.455Z,15.50
2019-01-03T11:33:56.143Z,16.53
2019-01-03T11:36:23.307Z,16.40
2019-01-03T11:38:50.753Z,15.27
2019-01-03T11:41:18.377Z,16.83
2019-01-03T11:43:45.897Z,18.43
2019-01-03T11:46:14.013Z,14.23
2019-01-03T11:48:41.736Z,17.97
2019-01-03T11:51:09.609Z,18.67
2019-01-03T11:53:36.706Z,18.37
2019-01-03T11:56:05.193Z,18.23
2019-01-03T11:58:32.359Z,27.60
2019-01-03T12:01:00.197Z,25.63
2019-01-03T12:03:27.625Z,22.70
2019-01-03T12:05:55.412Z,21.73
2019-01-03T12:08:23.252Z,20.43
2019-01-03T12:10:51.081Z,23.10
2019-01-03T12:13:18.576Z,24.40
2019-01-03T12:15:45.866Z,22.50
2019-01-03T12:18:13.139Z,22.13
2019-01-03T12:20:40.506Z,24.47
2019-01-03T12:23:08.356Z,24.00
2019-01-03T12:25:36.106Z,20.00
2019-01-03T12:28:03.493Z,22.00
2019-01-03T12:30:31.168Z,20.17
2019-01-03T12:32:59.143Z,25.50
2019-01-03T12:35:26.709Z,24.20
2019-01-03T12:37:53.962Z,25.50
2019-01-03T12:40:21.551Z,21.73
2019-01-03T12:42:49.709Z,21.03
2019-01-03T12:45:16.928Z,24.13
2019-01-03T12:47:44.995Z,26.43
2019-01-03T12:50:12.439Z,25.53
2019-01-03T12:52:39.907Z,30.13
2019-01-03T12:55:07.998Z,26.47
2019-01-03T12:57:35.521Z,21.03
2019-01-03T13:00:06.551Z,24.77
2019-01-03T13:02:34.450Z,30.00
2019-01-03T13:05:01.920Z,21.50
2019-01-03T13:07:29.714Z,24.60
2019-01-03T13:09:57.714Z,26.93
2019-01-03T13:12:25.384Z,26.77
2019-01-03T13:14:52.760Z,24.33
2019-01-03T13:17:20.248Z,21.67
2019-01-03T13:19:48.258Z,24.97
2019-01-03T13:22:15.820Z,24.50
2019-01-03T13:24:43.379Z,21.37
2019-01-03T13:27:11.092Z,24.97
2019-01-03T13:29:38.608Z,25.30
2019-01-03T13:32:10.384Z,25.40
2019-01-03T13:34:37.592Z,23.57
2019-01-03T13:37:05.155Z,25.27
2019-01-03T13:39:32.377Z,24.83
2019-01-03T13:41:59.782Z,27.60
2019-01-03T13:44:27.257Z,25.37
2019-01-03T13:46:55.194Z,24.27
2019-01-03T13:49:23.189Z,27.23
2019-01-03T13:51:50.855Z,27.43
2019-01-03T13:54:18.736Z,25.17
2019-01-03T13:56:46.710Z,24.67
2019-01-03T13:59:14.064Z,23.90
2019-01-03T14:01:42.077Z,24.67
2019-01-03T14:04:10.119Z,23.27
2019-01-03T14:06:37.678Z,27.13
2019-01-03T14:09:06.473Z,22.20
2019-01-03T14:11:34.039Z,24.90
2019-01-03T14:14:01.851Z,27.53
2019-01-03T14:16:29.790Z,27.50
2019-01-03T14:18:57.537Z,29.40
2019-01-03T14:21:25.102Z,30.47
2019-01-03T14:23:52.497Z,27.80
2019-01-03T14:26:19.713Z,29.13
2019-01-03T14:28:47.560Z,31.63
2019-01-03T14:31:15.017Z,32.70
2019-01-03T14:33:42.496Z,27.93
2019-01-03T14:36:09.937Z,29.90
2019-01-03T14:38:37.886Z,27.83
2019-01-03T14:41:05.396Z,25.73
2019-01-03T14:43:32.645Z,30.30
2019-01-03T14:46:00.097Z,28.20
2019-01-03T14:48:27.632Z,40.03
2019-01-03T14:50:55.387Z,29.77
2019-01-03T14:53:22.858Z,33.00
2019-01-03T14:55:50.588Z,28.17
2019-01-03T14:58:17.710Z,31.67
2019-01-03T15:00:45.496Z,25.53
2019-01-03T15:03:12.774Z,25.47
2019-01-03T15:05:40.257Z,22.03
2019-01-03T15:08:07.483Z,24.60
2019-01-03T15:10:35.424Z,27.53
2019-01-03T15:13:03.302Z,26.93
2019-01-03T15:15:31.002Z,24.03
2019-01-03T15:17:58.776Z,26.00
2019-01-03T15:20:26.586Z,21.93
2019-01-03T15:22:54.537Z,28.70
2019-01-03T15:25:22.639Z,25.87
2019-01-03T15:27:50.320Z,23.47
2019-01-03T15:30:17.581Z,26.10
2019-01-03T15:32:45.465Z,22.77
2019-01-03T15:35:12.968Z,28.50
2019-01-03T15:37:41.386Z,29.67
2019-01-03T15:40:09.032Z,35.60
2019-01-03T15:42:36.851Z,34.50
2019-01-03T15:45:06.128Z,32.10
2019-01-03T15:47:33.593Z,29.07
2019-01-03T15:50:04.115Z,28.87
2019-01-03T15:52:31.867Z,32.70
2019-01-03T15:54:59.983Z,28.23
2019-01-03T15:57:27.640Z,30.50
2019-01-03T15:59:55.309Z,25.77
2019-01-03T16:02:22.996Z,34.67
2019-01-03T16:04:51.001Z,29.57
2019-01-03T16:07:18.986Z,29.50
2019-01-03T16:09:47.944Z,34.50
2019-01-03T16:12:15.114Z,30.67
2019-01-03T16:14:42.922Z,27.80
2019-01-03T16:17:12.113Z,26.63
2019-01-03T16:19:39.224Z,32.93
2019-01-03T16:22:06.553Z,24.27
2019-01-03T16:24:33.937Z,32.50
2019-01-03T16:27:01.301Z,33.87
2019-01-03T16:29:29.069Z,26.90
2019-01-03T16:31:56.161Z,26.53
2019-01-03T16:34:23.580Z,32.73
2019-01-03T16:36:51.078Z,35.23
2019-01-03T16:39:18.340Z,27.50
2019-01-03T16:41:46.137Z,29.83
2019-01-03T16:44:13.973Z,30.03
2019-01-03T16:46:41.582Z,26.27
2019-01-03T16:49:11.540Z,29.83
2019-01-03T16:51:39.752Z,32.07
2019-01-03T16:54:07.257Z,28.60
2019-01-03T16:56:34.881Z,30.83
2019-01-03T16:59:02.616Z,34.40
2019-01-03T17:01:29.994Z,27.40
2019-01-03T17:03:57.909Z,31.03
2019-01-03T17:06:25.613Z,32.73
2019-01-03T17:08:53.860Z,30.50
2019-01-03T17:11:21.705Z,23.63
2019-01-03T17:13:49.184Z,29.37
2019-01-03T17:16:17.006Z,27.00
2019-01-03T17:18:44.836Z,28.40
2019-01-03T17:21:12.468Z,24.53
2019-01-03T17:23:39.608Z,30.77
2019-01-03T17:26:07.505Z,29.57
2019-01-03T17:28:35.099Z,31.70
2019-01-03T17:31:02.809Z,29.23
2019-01-03T17:33:30.478Z,28.53
2019-01-03T17:35:58.808Z,27.47
2019-01-03T17:38:26.787Z,34.47
2019-01-03T17:40:54.047Z,29.50
2019-01-03T17:43:21.440Z,30.43
2019-01-03T17:45:48.777Z,31.23
2019-01-03T17:48:15.974Z,37.47
2019-01-03T17:50:43.825Z,32.43
2019-01-03T17:53:11.241Z,29.93
2019-01-03T17:55:38.985Z,38.80
2019-01-03T17:58:06.914Z,34.57
2019-01-03T18:00:36.126Z,35.83
2019-01-03T18:03:04.322Z,36.17
2019-01-03T18:05:31.812Z,34.30
2019-01-03T18:07:59.622Z,37.53
2019-01-03T18:10:27.336Z,38.47
2019-01-03T18:12:54.721Z,38.07
2019-01-03T18:15:25.213Z,34.43
2019-01-03T18:17:53.333Z,38.83
2019-01-03T18:20:20.880Z,37.17
2019-01-03T18:22:48.707Z,34.10
2019-01-03T18:25:16.541Z,37.10
2019-01-03T18:27:44.110Z,38.17
2019-01-03T18:30:12.436Z,32.80
2019-01-03T18:32:39.817Z,32.23
2019-01-03T18:35:07.343Z,32.73
2019-01-03T18:37:35.250Z,36.53
2019-01-03T18:40:02.809Z,46.43
2019-01-03T18:42:30.298Z,34.97
2019-01-03T18:44:58.059Z,37.13
2019-01-03T18:47:25.206Z,34.03
2019-01-03T18:49:52.597Z,31.53
2019-01-03T18:52:20.441Z,42.80
2019-01-03T18:54:47.623Z,42.77
2019-01-03T18:57:15.485Z,43.53
2019-01-03T18:59:42.619Z,36.60
2019-01-03T19:02:10.496Z,37.10
2019-01-03T19:04:38.369Z,39.57
2019-01-03T19:07:06.301Z,35.37
2019-01-03T19:09:34.576Z,43.20
2019-01-03T19:12:02.703Z,38.57
2019-01-03T19:14:30.429Z,42.97
2019-01-03T19:16:58.736Z,35.43
2019-01-03T19:19:26.544Z,38.80
2019-01-03T19:21:53.861Z,36.27
2019-01-03T19:24:21.119Z,42.40
2019-01-03T19:26:48.871Z,43.63
2019-01-03T19:29:16.683Z,41.50
2019-01-03T19:31:44.397Z,45.73
2019-01-03T19:34:12.208Z,34.97
2019-01-03T19:36:40.508Z,38.73
2019-01-03T19:39:08.398Z,34.60
2019-01-03T19:41:36.952Z,41.03
2019-01-03T19:44:04.678Z,35.50
2019-01-03T19:46:32.761Z,37.00
2019-01-03T19:49:00.555Z,41.60
2019-01-03T19:51:29.072Z,39.33
2019-01-03T19:53:57.088Z,36.80
2019-01-03T19:56:25.142Z,35.83
2019-01-03T19:58:52.273Z,39.67
2019-01-03T20:01:19.808Z,39.00
2019-01-03T20:03:47.819Z,41.40
2019-01-03T20:06:16.409Z,36.53
2019-01-03T20:08:44.166Z,38.80
2019-01-03T20:11:11.947Z,37.47
2019-01-03T20:13:39.205Z,39.73
2019-01-03T20:16:07.062Z,31.23
2019-01-03T20:18:35.045Z,33.97
2019-01-03T20:21:02.875Z,34.33
2019-01-03T20:23:30.739Z,38.10
2019-01-03T20:25:58.934Z,46.93
2019-01-03T20:28:27.393Z,40.03
2019-01-03T20:30:55.490Z,45.17
2019-01-03T20:33:22.870Z,54.80
2019-01-03T20:35:50.365Z,50.40
2019-01-03T20:38:18.134Z,50.10
2019-01-03T20:40:45.597Z,27.37
2019-01-03T20:43:13.121Z,42.90
2019-01-03T20:45:40.834Z,46.33
2019-01-03T20:48:08.541Z,53.57
2019-01-03T20:50:35.822Z,45.23
2019-01-03T20:53:03.658Z,47.73
2019-01-03T20:55:32.176Z,33.83
2019-01-03T20:58:00.054Z,38.43
2019-01-03T21:00:27.732Z,39.37
2019-01-03T21:02:55.247Z,38.93
2019-01-03T21:05:23.615Z,38.07
2019-01-03T21:07:51.240Z,40.80
2019-01-03T21:10:19.091Z,46.37
2019-01-03T21:12:46.354Z,41.13
2019-01-03T21:15:17.247Z,45.67
2019-01-03T21:17:44.777Z,36.53
2019-01-03T21:20:13.569Z,31.20
2019-01-03T21:22:41.321Z,38.83
2019-01-03T21:25:09.760Z,62.83
2019-01-03T21:27:37.610Z,43.60
2019-01-03T21:30:11.424Z,38.27
2019-01-03T21:32:39.208Z,44.43
2019-01-03T21:35:06.771Z,31.37
2019-01-03T21:37:34.219Z,43.93
2019-01-03T21:40:01.544Z,56.63
2019-01-03T21:42:29.234Z,54.23
2019-01-03T21:44:56.855Z,64.83
2019-01-03T21:47:24.336Z,61.83
2019-01-03T21:49:51.925Z,73.80
2019-01-03T21:52:19.733Z,69.23
2019-01-03T21:54:47.349Z,73.93
2019-01-03T21:57:14.604Z,57.23
2019-01-03T21:59:42.076Z,46.40
2019-01-03T22:02:09.212Z,47.60
2019-01-03T22:04:36.771Z,46.23
2019-01-03T22:07:04.949Z,50.80
2019-01-03T22:09:32.793Z,43.57
2019-01-03T22:12:00.227Z,60.13
2019-01-03T22:14:27.659Z,53.83
2019-01-03T22:16:55.393Z,72.83
2019-01-03T22:19:22.910Z,88.07
2019-01-03T22:21:50.413Z,79.07
2019-01-03T22:24:17.688Z,78.53
2019-01-03T22:26:45.547Z,88.13
2019-01-03T22:29:13.117Z,97.33
2019-01-03T22:31:40.941Z,105.67
2019-01-03T22:34:08.919Z,120.80
2019-01-03T22:36:36.196Z,100.13
2019-01-03T22:39:04.670Z,93.97
2019-01-03T22:41:32.624Z,130.63
2019-01-03T22:44:00.159Z,103.93
2019-01-03T22:46:27.449Z,85.47
2019-01-03T22:48:55.073Z,90.60
2019-01-03T22:51:22.446Z,84.67
2019-01-03T22:53:50.586Z,114.43
2019-01-03T22:56:18.478Z,95.90
2019-01-03T22:58:45.921Z,111.50
2019-01-03T23:01:13.574Z,103.80
2019-01-03T23:03:41.276Z,72.93
2019-01-03T23:06:09.283Z,64.80
2019-01-03T23:08:36.545Z,65.43
2019-01-03T23:11:04.012Z,52.13
2019-01-03T23:13:31.744Z,82.23
2019-01-03T23:16:02.796Z,76.47
2019-01-03T23:18:31.545Z,81.03
2019-01-03T23:20:59.029Z,80.60
2019-01-03T23:23:26.729Z,77.03
2019-01-03T23:25:55.660Z,60.97
2019-01-03T23:28:23.069Z,62.80
2019-01-03T23:30:50.875Z,42.17
2019-01-03T23:33:18.500Z,57.73
2019-01-03T23:35:46.034Z,50.47
2019-01-03T23:38:14.464Z,52.93
2019-01-03T23:40:41.681Z,80.03
2019-01-03T23:43:09.185Z,72.57
2019-01-03T23:45:37.359Z,53.40
2019-01-03T23:48:04.752Z,60.23
2019-01-03T23:50:34.505Z,186.23
2019-01-03T23:53:01.882Z,63.63
2019-01-03T23:55:32.867Z,72.97
2019-01-03T23:58:00.357Z,61.13
